Main page
METAR-TAF:

Airports :

Istanbul Atatürk, Turkey

Istanbul Atatürk Airport

latitude: 40-58N, longitude: 028-49E, elevation: 48 m

Current weather observation

The report was made 28 minutes ago, at 09:50 UTC
Wind 7 kt from the Southeast with gusts up to 17 kt, varying between East and South
Temperature 26°C
Humidity 39%
Pressure 1017 hPa
Visibility 10 km or more
no clouds below 1500 m and no cumulonimbus

METAR: LTBA 010950Z 13007G17KT 090V180 CAVOK 26/11 Q1017 NOSIG RMK RWY17L 05006KT 320V130 RWY05 14006KT 090V180 RWY23 11001KT

Time: 13:18 (10:18 UTC)

Forecast

The report was made 5 hours and 38 minutes ago, at 04:40 UTC
Forecast valid from 01 at 06 UTC to 02 at 12 UTC
Wind 9 kt from the North/Northeast
Visibility 10 km or more
no clouds below 1500 m and no cumulonimbus

TAF: LTBA 010440Z 0106/0212 03009KT CAVOK

METAR-TAF

Weather observations and forecasts of more than 4000 airports (METAR and TAF reports).

The available stations are represented by yellow and red dots on the map.

Hover mouse over dot to see the name of the station.

Then click to see weather observations and forecasts.

To change the map : click on the green buttons with a black cross to zoom in, on the green button with a dash to zoom out, or on the green arrows for adjacent maps.


METAR-TAF: